sensor_id;sensor_type;location;lat;lon;timestamp;P1;durP1;ratioP1;P2;durP2;ratioP2
76731;SDS011;65656;51.130;13.658;2023-04-01T00:01:37;7.70;;;7.05;;
76731;SDS011;65656;51.130;13.658;2023-04-01T00:05:40;6.22;;;5.78;;
76731;SDS011;65656;51.130;13.658;2023-04-01T00:09:41;11.25;;;7.93;;
76731;SDS011;65656;51.130;13.658;2023-04-01T00:13:43;7.20;;;6.88;;
76731;SDS011;65656;51.130;13.658;2023-04-01T00:17:45;8.38;;;7.93;;
76731;SDS011;65656;51.130;13.658;2023-04-01T00:21:48;9.77;;;9.23;;
76731;SDS011;65656;51.130;13.658;2023-04-01T00:25:49;4.85;;;4.53;;
76731;SDS011;65656;51.130;13.658;2023-04-01T00:29:51;5.35;;;4.40;;
76731;SDS011;65656;51.130;13.658;2023-04-01T00:33:52;7.75;;;7.13;;
76731;SDS011;65656;51.130;13.658;2023-04-01T00:37:55;6.15;;;5.63;;
76731;SDS011;65656;51.130;13.658;2023-04-01T00:41:57;8.85;;;8.25;;
76731;SDS011;65656;51.130;13.658;2023-04-01T00:45:58;8.85;;;8.25;;
76731;SDS011;65656;51.130;13.658;2023-04-01T00:50:00;4.78;;;4.40;;
76731;SDS011;65656;51.130;13.658;2023-04-01T00:54:03;4.70;;;4.45;;
76731;SDS011;65656;51.130;13.658;2023-04-01T00:58:07;6.55;;;6.05;;
76731;SDS011;65656;51.130;13.658;2023-04-01T01:02:13;15.35;;;14.55;;
76731;SDS011;65656;51.130;13.658;2023-04-01T01:06:19;5.85;;;5.43;;
76731;SDS011;65656;51.130;13.658;2023-04-01T01:10:33;6.28;;;5.85;;
76731;SDS011;65656;51.130;13.658;2023-04-01T01:18:49;5.93;;;4.35;;
76731;SDS011;65656;51.130;13.658;2023-04-01T01:27:45;7.88;;;7.30;;
76731;SDS011;65656;51.130;13.658;2023-04-01T01:31:58;9.75;;;8.98;;
76731;SDS011;65656;51.130;13.658;2023-04-01T01:36:09;5.47;;;5.05;;
76731;SDS011;65656;51.130;13.658;2023-04-01T01:40:14;6.55;;;6.15;;
76731;SDS011;65656;51.130;13.658;2023-04-01T01:44:17;5.85;;;5.43;;
76731;SDS011;65656;51.130;13.658;2023-04-01T01:48:19;7.95;;;5.60;;
76731;SDS011;65656;51.130;13.658;2023-04-01T01:52:22;5.93;;;5.40;;
76731;SDS011;65656;51.130;13.658;2023-04-01T01:56:26;18.13;;;17.27;;
76731;SDS011;65656;51.130;13.658;2023-04-01T02:00:30;6.97;;;6.55;;
76731;SDS011;65656;51.130;13.658;2023-04-01T02:04:32;10.57;;;9.80;;
76731;SDS011;65656;51.130;13.658;2023-04-01T02:08:36;12.05;;;11.35;;
76731;SDS011;65656;51.130;13.658;2023-04-01T02:12:42;4.90;;;4.43;;
76731;SDS011;65656;51.130;13.658;2023-04-01T02:16:49;7.88;;;7.32;;
76731;SDS011;65656;51.130;13.658;2023-04-01T02:20:54;5.15;;;4.68;;
76731;SDS011;65656;51.130;13.658;2023-04-01T02:25:01;6.03;;;5.53;;
76731;SDS011;65656;51.130;13.658;2023-04-01T02:29:06;5.53;;;5.07;;
76731;SDS011;65656;51.130;13.658;2023-04-01T02:33:10;5.10;;;4.68;;
76731;SDS011;65656;51.130;13.658;2023-04-01T02:37:12;7.03;;;6.57;;
76731;SDS011;65656;51.130;13.658;2023-04-01T02:41:16;4.00;;;3.70;;
76731;SDS011;65656;51.130;13.658;2023-04-01T02:45:18;3.80;;;3.47;;
76731;SDS011;65656;51.130;13.658;2023-04-01T02:49:19;8.52;;;7.93;;
76731;SDS011;65656;51.130;13.658;2023-04-01T02:53:21;10.73;;;9.93;;
76731;SDS011;65656;51.130;13.658;2023-04-01T02:57:24;5.95;;;4.60;;
76731;SDS011;65656;51.130;13.658;2023-04-01T03:01:26;9.18;;;8.60;;
76731;SDS011;65656;51.130;13.658;2023-04-01T03:05:28;4.22;;;3.40;;
76731;SDS011;65656;51.130;13.658;2023-04-01T03:09:29;8.05;;;7.28;;
76731;SDS011;65656;51.130;13.658;2023-04-01T03:13:32;5.30;;;4.82;;
76731;SDS011;65656;51.130;13.658;2023-04-01T03:17:34;6.40;;;6.00;;
76731;SDS011;65656;51.130;13.658;2023-04-01T03:21:35;6.28;;;3.85;;
76731;SDS011;65656;51.130;13.658;2023-04-01T03:25:36;4.63;;;4.25;;
76731;SDS011;65656;51.130;13.658;2023-04-01T03:29:39;4.63;;;4.32;;
76731;SDS011;65656;51.130;13.658;2023-04-01T03:33:41;5.95;;;5.53;;
76731;SDS011;65656;51.130;13.658;2023-04-01T03:37:42;6.82;;;4.00;;
76731;SDS011;65656;51.130;13.658;2023-04-01T03:41:44;7.75;;;7.05;;
76731;SDS011;65656;51.130;13.658;2023-04-01T03:45:48;8.05;;;7.30;;
76731;SDS011;65656;51.130;13.658;2023-04-01T03:49:51;5.88;;;4.47;;
76731;SDS011;65656;51.130;13.658;2023-04-01T03:53:52;6.90;;;5.15;;
76731;SDS011;65656;51.130;13.658;2023-04-01T03:57:54;8.48;;;7.53;;
76731;SDS011;65656;51.130;13.658;2023-04-01T04:01:57;12.90;;;12.02;;
76731;SDS011;65656;51.130;13.658;2023-04-01T04:05:58;7.85;;;7.18;;
76731;SDS011;65656;51.130;13.658;2023-04-01T04:10:00;6.03;;;5.22;;
76731;SDS011;65656;51.130;13.658;2023-04-01T04:14:01;8.40;;;7.65;;
76731;SDS011;65656;51.130;13.658;2023-04-01T04:18:05;6.82;;;4.55;;
76731;SDS011;65656;51.130;13.658;2023-04-01T04:22:06;5.63;;;4.80;;
76731;SDS011;65656;51.130;13.658;2023-04-01T04:26:08;5.38;;;4.90;;
76731;SDS011;65656;51.130;13.658;2023-04-01T04:30:11;5.15;;;3.88;;
76731;SDS011;65656;51.130;13.658;2023-04-01T04:34:14;3.60;;;3.30;;
76731;SDS011;65656;51.130;13.658;2023-04-01T04:38:16;5.00;;;4.07;;
76731;SDS011;65656;51.130;13.658;2023-04-01T04:42:18;6.60;;;6.10;;
76731;SDS011;65656;51.130;13.658;2023-04-01T04:46:20;6.25;;;5.85;;
76731;SDS011;65656;51.130;13.658;2023-04-01T04:50:24;6.20;;;5.70;;
76731;SDS011;65656;51.130;13.658;2023-04-01T04:54:26;5.25;;;3.78;;
76731;SDS011;65656;51.130;13.658;2023-04-01T04:58:27;4.15;;;3.85;;
76731;SDS011;65656;51.130;13.658;2023-04-01T05:02:29;7.97;;;7.43;;
76731;SDS011;65656;51.130;13.658;2023-04-01T05:06:32;8.32;;;7.82;;
76731;SDS011;65656;51.130;13.658;2023-04-01T05:10:33;3.88;;;2.88;;
76731;SDS011;65656;51.130;13.658;2023-04-01T05:14:35;5.20;;;3.60;;
76731;SDS011;65656;51.130;13.658;2023-04-01T05:18:37;6.45;;;4.07;;
76731;SDS011;65656;51.130;13.658;2023-04-01T05:22:40;9.07;;;8.52;;
76731;SDS011;65656;51.130;13.658;2023-04-01T05:26:42;6.97;;;5.47;;
76731;SDS011;65656;51.130;13.658;2023-04-01T05:30:44;9.82;;;9.23;;
76731;SDS011;65656;51.130;13.658;2023-04-01T05:34:45;18.13;;;17.17;;
76731;SDS011;65656;51.130;13.658;2023-04-01T05:38:48;5.50;;;4.72;;
76731;SDS011;65656;51.130;13.658;2023-04-01T05:42:50;9.18;;;8.57;;
76731;SDS011;65656;51.130;13.658;2023-04-01T05:46:51;17.02;;;13.13;;
76731;SDS011;65656;51.130;13.658;2023-04-01T05:50:53;11.60;;;10.25;;
76731;SDS011;65656;51.130;13.658;2023-04-01T05:54:56;6.60;;;5.88;;
76731;SDS011;65656;51.130;13.658;2023-04-01T05:58:57;4.20;;;3.85;;
76731;SDS011;65656;51.130;13.658;2023-04-01T06:02:59;5.43;;;5.00;;
76731;SDS011;65656;51.130;13.658;2023-04-01T06:07:01;4.32;;;4.00;;
76731;SDS011;65656;51.130;13.658;2023-04-01T06:11:19;9.35;;;4.88;;
76731;SDS011;65656;51.130;13.658;2023-04-01T06:15:30;7.90;;;7.22;;
76731;SDS011;65656;51.130;13.658;2023-04-01T06:19:40;5.07;;;4.63;;
76731;SDS011;65656;51.130;13.658;2023-04-01T06:23:50;12.95;;;12.23;;
76731;SDS011;65656;51.130;13.658;2023-04-01T06:28:05;6.70;;;6.28;;
76731;SDS011;65656;51.130;13.658;2023-04-01T06:32:31;6.28;;;5.78;;
76731;SDS011;65656;51.130;13.658;2023-04-01T06:36:50;7.28;;;6.68;;
76731;SDS011;65656;51.130;13.658;2023-04-01T06:45:34;4.18;;;3.88;;
76731;SDS011;65656;51.130;13.658;2023-04-01T06:53:50;6.80;;;6.30;;
76731;SDS011;65656;51.130;13.658;2023-04-01T06:57:57;8.13;;;7.47;;
76731;SDS011;65656;51.130;13.658;2023-04-01T07:02:04;5.57;;;5.18;;
76731;SDS011;65656;51.130;13.658;2023-04-01T07:06:19;5.03;;;4.60;;
76731;SDS011;65656;51.130;13.658;2023-04-01T07:10:30;6.15;;;5.47;;
76731;SDS011;65656;51.130;13.658;2023-04-01T07:14:36;6.30;;;5.40;;
76731;SDS011;65656;51.130;13.658;2023-04-01T07:18:43;13.25;;;12.63;;
76731;SDS011;65656;51.130;13.658;2023-04-01T07:22:49;11.02;;;10.07;;
76731;SDS011;65656;51.130;13.658;2023-04-01T07:26:53;4.78;;;3.80;;
76731;SDS011;65656;51.130;13.658;2023-04-01T07:30:58;5.15;;;4.75;;
76731;SDS011;65656;51.130;13.658;2023-04-01T07:35:11;3.65;;;2.70;;
76731;SDS011;65656;51.130;13.658;2023-04-01T07:39:25;5.05;;;4.55;;
76731;SDS011;65656;51.130;13.658;2023-04-01T07:43:43;6.05;;;5.50;;
76731;SDS011;65656;51.130;13.658;2023-04-01T07:47:58;6.60;;;6.10;;
76731;SDS011;65656;51.130;13.658;2023-04-01T07:52:11;3.83;;;3.00;;
76731;SDS011;65656;51.130;13.658;2023-04-01T07:56:18;4.07;;;3.80;;
76731;SDS011;65656;51.130;13.658;2023-04-01T08:00:30;4.70;;;4.30;;
76731;SDS011;65656;51.130;13.658;2023-04-01T08:04:41;5.43;;;5.10;;
76731;SDS011;65656;51.130;13.658;2023-04-01T08:08:58;4.97;;;4.53;;
76731;SDS011;65656;51.130;13.658;2023-04-01T08:13:09;5.13;;;4.72;;
76731;SDS011;65656;51.130;13.658;2023-04-01T08:17:16;6.70;;;6.30;;
76731;SDS011;65656;51.130;13.658;2023-04-01T08:21:27;3.22;;;2.90;;
76731;SDS011;65656;51.130;13.658;2023-04-01T08:25:33;3.50;;;3.10;;
76731;SDS011;65656;51.130;13.658;2023-04-01T08:29:39;4.85;;;4.47;;
76731;SDS011;65656;51.130;13.658;2023-04-01T08:33:47;5.55;;;5.13;;
76731;SDS011;65656;51.130;13.658;2023-04-01T08:37:54;6.00;;;5.50;;
76731;SDS011;65656;51.130;13.658;2023-04-01T08:46:46;5.13;;;3.50;;
76731;SDS011;65656;51.130;13.658;2023-04-01T08:55:51;5.45;;;4.90;;
76731;SDS011;65656;51.130;13.658;2023-04-01T09:00:10;3.97;;;3.67;;
76731;SDS011;65656;51.130;13.658;2023-04-01T09:04:25;6.80;;;6.28;;
76731;SDS011;65656;51.130;13.658;2023-04-01T09:08:35;3.30;;;3.00;;
76731;SDS011;65656;51.130;13.658;2023-04-01T09:12:56;6.97;;;6.38;;
76731;SDS011;65656;51.130;13.658;2023-04-01T09:21:44;4.40;;;3.58;;
76731;SDS011;65656;51.130;13.658;2023-04-01T09:26:03;4.40;;;4.10;;
76731;SDS011;65656;51.130;13.658;2023-04-01T09:34:53;5.15;;;4.70;;
76731;SDS011;65656;51.130;13.658;2023-04-01T09:38:57;5.05;;;3.88;;
76731;SDS011;65656;51.130;13.658;2023-04-01T09:43:16;7.95;;;6.68;;
76731;SDS011;65656;51.130;13.658;2023-04-01T09:47:29;5.22;;;4.00;;
76731;SDS011;65656;51.130;13.658;2023-04-01T09:51:47;5.80;;;5.38;;
76731;SDS011;65656;51.130;13.658;2023-04-01T09:56:11;6.00;;;5.60;;
76731;SDS011;65656;51.130;13.658;2023-04-01T10:00:32;3.38;;;3.13;;
76731;SDS011;65656;51.130;13.658;2023-04-01T10:04:56;4.20;;;3.22;;
76731;SDS011;65656;51.130;13.658;2023-04-01T10:14:10;5.60;;;5.20;;
76731;SDS011;65656;51.130;13.658;2023-04-01T10:18:44;6.57;;;6.18;;
76731;SDS011;65656;51.130;13.658;2023-04-01T10:23:02;13.50;;;12.82;;
76731;SDS011;65656;51.130;13.658;2023-04-01T10:27:27;8.95;;;8.35;;
76731;SDS011;65656;51.130;13.658;2023-04-01T10:31:57;6.03;;;5.63;;
76731;SDS011;65656;51.130;13.658;2023-04-01T10:36:32;7.80;;;7.03;;
76731;SDS011;65656;51.130;13.658;2023-04-01T10:40:53;4.25;;;3.67;;
76731;SDS011;65656;51.130;13.658;2023-04-01T10:50:04;6.07;;;3.88;;
76731;SDS011;65656;51.130;13.658;2023-04-01T10:54:36;7.38;;;6.80;;
76731;SDS011;65656;51.130;13.658;2023-04-01T10:58:52;4.13;;;3.80;;
76731;SDS011;65656;51.130;13.658;2023-04-01T11:03:30;4.38;;;3.10;;
76731;SDS011;65656;51.130;13.658;2023-04-01T11:08:14;4.97;;;4.18;;
76731;SDS011;65656;51.130;13.658;2023-04-01T11:12:59;3.85;;;3.53;;
76731;SDS011;65656;51.130;13.658;2023-04-01T11:22:20;5.55;;;5.25;;
76731;SDS011;65656;51.130;13.658;2023-04-01T11:26:41;4.13;;;3.80;;
76731;SDS011;65656;51.130;13.658;2023-04-01T11:31:00;3.28;;;2.72;;
76731;SDS011;65656;51.130;13.658;2023-04-01T11:39:57;3.33;;;3.10;;
76731;SDS011;65656;51.130;13.658;2023-04-01T11:44:13;5.82;;;5.43;;
76731;SDS011;65656;51.130;13.658;2023-04-01T11:48:21;5.43;;;4.95;;
76731;SDS011;65656;51.130;13.658;2023-04-01T11:52:38;3.33;;;3.10;;
76731;SDS011;65656;51.130;13.658;2023-04-01T11:56:57;5.80;;;5.40;;
76731;SDS011;65656;51.130;13.658;2023-04-01T12:01:28;6.07;;;5.72;;
76731;SDS011;65656;51.130;13.658;2023-04-01T12:05:42;5.70;;;5.38;;
76731;SDS011;65656;51.130;13.658;2023-04-01T12:13:55;4.70;;;4.47;;
76731;SDS011;65656;51.130;13.658;2023-04-01T12:18:11;4.00;;;3.72;;
76731;SDS011;65656;51.130;13.658;2023-04-01T12:22:21;4.68;;;4.13;;
76731;SDS011;65656;51.130;13.658;2023-04-01T12:26:40;3.97;;;3.67;;
76731;SDS011;65656;51.130;13.658;2023-04-01T12:30:55;5.57;;;5.18;;
76731;SDS011;65656;51.130;13.658;2023-04-01T12:35:14;3.35;;;3.05;;
76731;SDS011;65656;51.130;13.658;2023-04-01T12:39:33;7.97;;;7.57;;
76731;SDS011;65656;51.130;13.658;2023-04-01T12:48:31;6.45;;;6.00;;
76731;SDS011;65656;51.130;13.658;2023-04-01T12:52:47;3.30;;;2.95;;
76731;SDS011;65656;51.130;13.658;2023-04-01T12:57:03;3.70;;;3.38;;
76731;SDS011;65656;51.130;13.658;2023-04-01T13:06:01;4.88;;;4.47;;
76731;SDS011;65656;51.130;13.658;2023-04-01T13:10:28;3.45;;;2.50;;
76731;SDS011;65656;51.130;13.658;2023-04-01T13:19:09;4.03;;;2.10;;
76731;SDS011;65656;51.130;13.658;2023-04-01T13:23:24;12.65;;;12.05;;
76731;SDS011;65656;51.130;13.658;2023-04-01T13:27:36;2.72;;;2.42;;
76731;SDS011;65656;51.130;13.658;2023-04-01T13:31:45;4.72;;;3.78;;
76731;SDS011;65656;51.130;13.658;2023-04-01T13:35:58;7.35;;;6.72;;
76731;SDS011;65656;51.130;13.658;2023-04-01T13:40:21;2.85;;;2.63;;
76731;SDS011;65656;51.130;13.658;2023-04-01T13:44:36;3.40;;;3.17;;
76731;SDS011;65656;51.130;13.658;2023-04-01T13:48:58;4.53;;;4.28;;
76731;SDS011;65656;51.130;13.658;2023-04-01T13:53:23;7.00;;;6.65;;
76731;SDS011;65656;51.130;13.658;2023-04-01T13:57:43;20.15;;;19.23;;
76731;SDS011;65656;51.130;13.658;2023-04-01T14:01:59;3.38;;;3.15;;
76731;SDS011;65656;51.130;13.658;2023-04-01T14:06:23;4.15;;;3.92;;
76731;SDS011;65656;51.130;13.658;2023-04-01T14:10:34;7.28;;;6.95;;
76731;SDS011;65656;51.130;13.658;2023-04-01T14:14:46;3.97;;;3.67;;
76731;SDS011;65656;51.130;13.658;2023-04-01T14:19:02;4.40;;;4.07;;
76731;SDS011;65656;51.130;13.658;2023-04-01T14:23:13;6.00;;;5.70;;
76731;SDS011;65656;51.130;13.658;2023-04-01T14:27:31;3.80;;;3.50;;
76731;SDS011;65656;51.130;13.658;2023-04-01T14:36:15;3.42;;;3.20;;
76731;SDS011;65656;51.130;13.658;2023-04-01T14:40:28;5.85;;;5.50;;
76731;SDS011;65656;51.130;13.658;2023-04-01T14:49:30;5.10;;;4.80;;
76731;SDS011;65656;51.130;13.658;2023-04-01T14:53:37;5.45;;;4.82;;
76731;SDS011;65656;51.130;13.658;2023-04-01T14:57:44;3.08;;;2.75;;
76731;SDS011;65656;51.130;13.658;2023-04-01T15:02:01;2.20;;;2.03;;
76731;SDS011;65656;51.130;13.658;2023-04-01T15:06:27;2.10;;;1.85;;
76731;SDS011;65656;51.130;13.658;2023-04-01T15:15:16;2.45;;;2.33;;
76731;SDS011;65656;51.130;13.658;2023-04-01T15:19:31;2.50;;;2.30;;
76731;SDS011;65656;51.130;13.658;2023-04-01T15:23:45;4.93;;;4.65;;
76731;SDS011;65656;51.130;13.658;2023-04-01T15:28:08;3.10;;;2.88;;
76731;SDS011;65656;51.130;13.658;2023-04-01T15:32:19;5.05;;;3.88;;
76731;SDS011;65656;51.130;13.658;2023-04-01T15:36:29;5.93;;;5.63;;
76731;SDS011;65656;51.130;13.658;2023-04-01T15:40:42;5.47;;;5.10;;
76731;SDS011;65656;51.130;13.658;2023-04-01T15:49:20;14.18;;;13.57;;
76731;SDS011;65656;51.130;13.658;2023-04-01T15:53:36;2.35;;;2.15;;
76731;SDS011;65656;51.130;13.658;2023-04-01T15:57:52;7.47;;;6.95;;
76731;SDS011;65656;51.130;13.658;2023-04-01T16:02:10;5.82;;;5.50;;
76731;SDS011;65656;51.130;13.658;2023-04-01T16:06:33;5.57;;;5.22;;
76731;SDS011;65656;51.130;13.658;2023-04-01T16:11:06;5.22;;;4.90;;
76731;SDS011;65656;51.130;13.658;2023-04-01T16:15:17;3.33;;;3.10;;
76731;SDS011;65656;51.130;13.658;2023-04-01T16:19:30;4.85;;;4.55;;
76731;SDS011;65656;51.130;13.658;2023-04-01T16:23:39;7.63;;;7.30;;
76731;SDS011;65656;51.130;13.658;2023-04-01T16:27:49;8.32;;;7.63;;
76731;SDS011;65656;51.130;13.658;2023-04-01T16:31:59;4.82;;;3.47;;
76731;SDS011;65656;51.130;13.658;2023-04-01T16:36:24;6.05;;;5.65;;
76731;SDS011;65656;51.130;13.658;2023-04-01T16:40:34;14.98;;;14.30;;
76731;SDS011;65656;51.130;13.658;2023-04-01T16:44:47;4.90;;;4.57;;
76731;SDS011;65656;51.130;13.658;2023-04-01T16:48:58;3.92;;;3.50;;
76731;SDS011;65656;51.130;13.658;2023-04-01T16:53:09;3.92;;;3.63;;
76731;SDS011;65656;51.130;13.658;2023-04-01T16:57:19;3.72;;;3.42;;
76731;SDS011;65656;51.130;13.658;2023-04-01T17:01:26;5.47;;;5.00;;
76731;SDS011;65656;51.130;13.658;2023-04-01T17:05:36;9.32;;;8.50;;
76731;SDS011;65656;51.130;13.658;2023-04-01T17:14:19;6.70;;;6.28;;
76731;SDS011;65656;51.130;13.658;2023-04-01T17:18:29;4.82;;;4.38;;
76731;SDS011;65656;51.130;13.658;2023-04-01T17:22:38;5.90;;;5.47;;
76731;SDS011;65656;51.130;13.658;2023-04-01T17:26:47;21.95;;;20.27;;
76731;SDS011;65656;51.130;13.658;2023-04-01T17:30:59;9.35;;;8.52;;
76731;SDS011;65656;51.130;13.658;2023-04-01T17:35:09;9.45;;;8.73;;
76731;SDS011;65656;51.130;13.658;2023-04-01T17:39:20;7.80;;;6.57;;
76731;SDS011;65656;51.130;13.658;2023-04-01T17:43:37;10.07;;;8.93;;
76731;SDS011;65656;51.130;13.658;2023-04-01T17:47:47;13.73;;;12.00;;
76731;SDS011;65656;51.130;13.658;2023-04-01T17:51:56;9.07;;;8.30;;
76731;SDS011;65656;51.130;13.658;2023-04-01T17:56:08;13.30;;;12.18;;
76731;SDS011;65656;51.130;13.658;2023-04-01T18:00:22;10.55;;;9.82;;
76731;SDS011;65656;51.130;13.658;2023-04-01T18:08:44;5.35;;;4.85;;
76731;SDS011;65656;51.130;13.658;2023-04-01T18:13:11;7.07;;;6.55;;
76731;SDS011;65656;51.130;13.658;2023-04-01T18:17:27;18.35;;;17.30;;
76731;SDS011;65656;51.130;13.658;2023-04-01T18:21:45;9.23;;;8.52;;
76731;SDS011;65656;51.130;13.658;2023-04-01T18:25:50;5.53;;;5.03;;
76731;SDS011;65656;51.130;13.658;2023-04-01T18:29:56;6.60;;;6.18;;
76731;SDS011;65656;51.130;13.658;2023-04-01T18:34:06;8.70;;;8.20;;
76731;SDS011;65656;51.130;13.658;2023-04-01T18:38:13;8.50;;;7.90;;
76731;SDS011;65656;51.130;13.658;2023-04-01T18:42:22;12.38;;;11.73;;
76731;SDS011;65656;51.130;13.658;2023-04-01T18:46:36;13.02;;;12.30;;
76731;SDS011;65656;51.130;13.658;2023-04-01T18:50:47;10.27;;;9.57;;
76731;SDS011;65656;51.130;13.658;2023-04-01T18:59:25;10.60;;;9.95;;
76731;SDS011;65656;51.130;13.658;2023-04-01T19:03:32;7.60;;;6.90;;
76731;SDS011;65656;51.130;13.658;2023-04-01T19:07:44;9.38;;;8.73;;
76731;SDS011;65656;51.130;13.658;2023-04-01T19:11:50;7.07;;;6.45;;
76731;SDS011;65656;51.130;13.658;2023-04-01T19:16:06;10.30;;;9.57;;
76731;SDS011;65656;51.130;13.658;2023-04-01T19:20:20;10.23;;;8.77;;
76731;SDS011;65656;51.130;13.658;2023-04-01T19:24:44;20.98;;;19.77;;
76731;SDS011;65656;51.130;13.658;2023-04-01T19:29:04;9.52;;;8.82;;
76731;SDS011;65656;51.130;13.658;2023-04-01T19:33:18;7.18;;;6.53;;
76731;SDS011;65656;51.130;13.658;2023-04-01T19:37:31;18.67;;;17.67;;
76731;SDS011;65656;51.130;13.658;2023-04-01T19:41:40;20.38;;;19.33;;
76731;SDS011;65656;51.130;13.658;2023-04-01T19:45:48;12.77;;;10.02;;
76731;SDS011;65656;51.130;13.658;2023-04-01T19:49:57;9.77;;;9.00;;
76731;SDS011;65656;51.130;13.658;2023-04-01T19:54:11;13.98;;;13.05;;
76731;SDS011;65656;51.130;13.658;2023-04-01T19:58:25;11.25;;;10.45;;
76731;SDS011;65656;51.130;13.658;2023-04-01T20:02:33;10.88;;;9.27;;
76731;SDS011;65656;51.130;13.658;2023-04-01T20:06:47;15.05;;;13.93;;
76731;SDS011;65656;51.130;13.658;2023-04-01T20:10:58;10.23;;;9.32;;
76731;SDS011;65656;51.130;13.658;2023-04-01T20:15:20;11.85;;;11.10;;
76731;SDS011;65656;51.130;13.658;2023-04-01T20:19:26;11.35;;;10.50;;
76731;SDS011;65656;51.130;13.658;2023-04-01T20:23:33;11.80;;;11.00;;
76731;SDS011;65656;51.130;13.658;2023-04-01T20:27:43;12.77;;;11.85;;
76731;SDS011;65656;51.130;13.658;2023-04-01T20:31:50;17.45;;;16.35;;
76731;SDS011;65656;51.130;13.658;2023-04-01T20:36:05;11.93;;;11.05;;
76731;SDS011;65656;51.130;13.658;2023-04-01T20:40:20;14.43;;;13.30;;
76731;SDS011;65656;51.130;13.658;2023-04-01T20:44:29;12.73;;;11.73;;
76731;SDS011;65656;51.130;13.658;2023-04-01T20:53:11;9.73;;;8.90;;
76731;SDS011;65656;51.130;13.658;2023-04-01T20:57:16;10.60;;;9.63;;
76731;SDS011;65656;51.130;13.658;2023-04-01T21:01:25;14.38;;;13.38;;
76731;SDS011;65656;51.130;13.658;2023-04-01T21:05:43;10.40;;;9.60;;
76731;SDS011;65656;51.130;13.658;2023-04-01T21:10:16;9.13;;;8.23;;
76731;SDS011;65656;51.130;13.658;2023-04-01T21:14:34;14.15;;;12.95;;
76731;SDS011;65656;51.130;13.658;2023-04-01T21:18:48;14.05;;;12.95;;
76731;SDS011;65656;51.130;13.658;2023-04-01T21:23:04;14.18;;;13.02;;
76731;SDS011;65656;51.130;13.658;2023-04-01T21:27:19;16.50;;;15.18;;
76731;SDS011;65656;51.130;13.658;2023-04-01T21:31:41;11.65;;;10.45;;
76731;SDS011;65656;51.130;13.658;2023-04-01T21:35:55;16.88;;;13.73;;
76731;SDS011;65656;51.130;13.658;2023-04-01T21:40:14;14.80;;;13.35;;
76731;SDS011;65656;51.130;13.658;2023-04-01T21:44:30;17.05;;;13.82;;
76731;SDS011;65656;51.130;13.658;2023-04-01T21:48:46;16.92;;;15.20;;
76731;SDS011;65656;51.130;13.658;2023-04-01T21:53:08;16.73;;;15.00;;
76731;SDS011;65656;51.130;13.658;2023-04-01T22:02:38;18.05;;;16.40;;
76731;SDS011;65656;51.130;13.658;2023-04-01T22:06:54;18.77;;;15.75;;
76731;SDS011;65656;51.130;13.658;2023-04-01T22:11:04;18.05;;;14.25;;
76731;SDS011;65656;51.130;13.658;2023-04-01T22:15:13;19.35;;;17.33;;
76731;SDS011;65656;51.130;13.658;2023-04-01T22:19:20;20.85;;;18.70;;
76731;SDS011;65656;51.130;13.658;2023-04-01T22:23:28;23.02;;;20.65;;
76731;SDS011;65656;51.130;13.658;2023-04-01T22:27:36;26.35;;;23.80;;
76731;SDS011;65656;51.130;13.658;2023-04-01T22:31:48;21.38;;;17.27;;
76731;SDS011;65656;51.130;13.658;2023-04-01T22:35:54;20.65;;;18.08;;
76731;SDS011;65656;51.130;13.658;2023-04-01T22:40:08;23.83;;;21.70;;
76731;SDS011;65656;51.130;13.658;2023-04-01T22:44:18;18.30;;;15.70;;
76731;SDS011;65656;51.130;13.658;2023-04-01T22:48:31;18.23;;;15.93;;
76731;SDS011;65656;51.130;13.658;2023-04-01T22:52:40;18.80;;;15.05;;
76731;SDS011;65656;51.130;13.658;2023-04-01T22:56:44;21.60;;;19.50;;
76731;SDS011;65656;51.130;13.658;2023-04-01T23:00:50;18.35;;;16.13;;
76731;SDS011;65656;51.130;13.658;2023-04-01T23:04:59;19.35;;;17.38;;
76731;SDS011;65656;51.130;13.658;2023-04-01T23:09:04;17.45;;;14.73;;
76731;SDS011;65656;51.130;13.658;2023-04-01T23:13:10;21.40;;;19.40;;
76731;SDS011;65656;51.130;13.658;2023-04-01T23:17:28;18.42;;;16.08;;
76731;SDS011;65656;51.130;13.658;2023-04-01T23:21:38;19.02;;;17.23;;
76731;SDS011;65656;51.130;13.658;2023-04-01T23:25:47;18.05;;;15.77;;
76731;SDS011;65656;51.130;13.658;2023-04-01T23:29:56;17.90;;;16.27;;
76731;SDS011;65656;51.130;13.658;2023-04-01T23:33:58;22.23;;;20.38;;
76731;SDS011;65656;51.130;13.658;2023-04-01T23:42:25;22.02;;;20.20;;
76731;SDS011;65656;51.130;13.658;2023-04-01T23:46:30;27.25;;;25.45;;
76731;SDS011;65656;51.130;13.658;2023-04-01T23:50:33;13.45;;;12.23;;
76731;SDS011;65656;51.130;13.658;2023-04-01T23:54:40;17.15;;;15.63;;
76731;SDS011;65656;51.130;13.658;2023-04-01T23:58:45;16.02;;;14.52;;
